Observations

BIA Manual Entry


Date Temp Humidity Rainfall Dew Point Wind Direction Wind Speed Wind Pressure Condition Visibility
2025-03-09 03:19:02 25 97 25 080 1.9 1009 Partly Cloudy (Night) 10 KM
2025-03-09 02:02:29 26 96 25 050 5.7 1010 Rain 10 KM
2025-03-09 00:58:46 25 97 25 160 3.8 1010 Rain 10 KM
2025-03-09 00:01:53 25 96 25 150 3.8 1011 Rain 10 KM
2025-03-08 22:58:09 26 95 25 060 9.5 1012 Rain 10 KM
2025-03-08 21:57:25 26 95 25 070 9.5 1012 Rain 10 KM
2025-03-08 20:59:39 26 92 0.01 25 050 8 1011 Rain 10 km
2025-03-08 20:08:22 26 89 0.01 24 050 8 1010 Night Shower 9
2025-03-08 19:04:12 27 85 0.01 24 040 8 1009 Night Shower 10 km
2025-03-08 18:03:07 27 79 0.01 25 360 8 1008 Night Shower 10 km
2025-03-08 17:02:47 29 79 0.0 24 320 20 1008 Distant showers 15 km
2025-03-08 16:03:17 31 75 0.0 25 300 12 1007 Cloudy 20 km
2025-03-08 15:05:35 31 66 0.0 24 240 10 1008 Cloudy 20 km
2025-03-08 14:01:53 30 67 0.0 23 250 8 1008 Cloudy 20 km
2025-03-08 13:02:56 29 72 0.00 24 220 11.4 1008 Partly Cloudy (Day) 10KM
2025-03-08 12:00:17 27 86 0.00 23 160 7.6 1011 Rain 10KM
2025-03-08 11:00:47 26 87 0.0 24 170 13.3 1011 Distant showers 10 KM
2025-03-08 10:03:08 24 97 0.0 24 160 7.6 1012 Rain 06 KM
2025-03-08 08:59:57 24 98 0.0 23 140 7.6 1012 Rain 03 KM
2025-03-08 08:02:45 24 98 0.0 23 170 5.7 1011 Rain 5KM
2025-03-08 07:00:43 23 98 0.0 23 170 7.6 1010 Rain 5KM
2025-03-08 06:01:12 24 98 0.0 23 160 9.5 1010 Rain 6KM
2025-03-08 05:00:03 24 97 0.0 24 180 9.5 1009 Rain 06KM
2025-03-08 04:00:45 24 99 0.0 23 170 7.6 1009 Rain 09KM
2025-03-08 03:01:22 24 99 0.0 23 190 7.6 1009 Rain 06KM